createdAt,value
2022-12-14T00:01:21.877Z,34.78
2022-12-14T00:03:24.090Z,32.10
2022-12-14T00:05:28.539Z,37.35
2022-12-14T00:07:30.763Z,36.47
2022-12-14T00:09:32.917Z,35.08
2022-12-14T00:11:35.097Z,39.65
2022-12-14T00:13:38.398Z,37.63
2022-12-14T00:15:40.735Z,32.40
2022-12-14T00:17:42.817Z,31.15
2022-12-14T00:19:45.831Z,34.08
2022-12-14T00:21:51.118Z,33.40
2022-12-14T00:23:54.542Z,30.23
2022-12-14T00:25:57.036Z,36.43
2022-12-14T00:27:59.125Z,36.72
2022-12-14T00:30:01.341Z,32.88
2022-12-14T00:32:03.744Z,36.80
2022-12-14T00:34:05.914Z,46.10
2022-12-14T00:36:09.859Z,26.30
2022-12-14T00:38:11.812Z,37.40
2022-12-14T00:40:14.330Z,41.35
2022-12-14T00:42:16.311Z,38.13
2022-12-14T00:44:18.382Z,35.75
2022-12-14T00:46:20.683Z,39.88
2022-12-14T00:48:24.328Z,36.08
2022-12-14T00:50:26.709Z,32.47
2022-12-14T00:52:28.793Z,35.33
2022-12-14T00:54:30.822Z,36.13
2022-12-14T00:56:33.404Z,32.67
2022-12-14T00:58:35.811Z,31.45
2022-12-14T01:00:38.172Z,33.53
2022-12-14T01:02:40.194Z,34.92
2022-12-14T01:04:42.317Z,32.53
2022-12-14T01:06:48.825Z,31.45
2022-12-14T01:08:50.769Z,31.58
2022-12-14T01:10:53.187Z,32.30
2022-12-14T01:12:55.209Z,25.20
2022-12-14T01:14:57.226Z,29.33
2022-12-14T01:16:59.365Z,31.08
2022-12-14T01:19:01.989Z,40.65
2022-12-14T01:21:18.500Z,33.95
2022-12-14T01:23:20.525Z,33.17
2022-12-14T01:25:22.727Z,34.08
2022-12-14T01:27:24.690Z,30.60
2022-12-14T01:29:26.681Z,32.40
2022-12-14T01:31:31.207Z,30.83
2022-12-14T01:33:33.204Z,35.13
2022-12-14T01:35:35.183Z,29.40
2022-12-14T01:37:37.130Z,28.55
2022-12-14T01:39:39.121Z,34.85
2022-12-14T01:41:47.434Z,31.83
2022-12-14T01:43:59.677Z,30.00
2022-12-14T01:46:01.758Z,30.88
2022-12-14T01:48:04.189Z,31.00
2022-12-14T01:50:24.663Z,26.10
2022-12-14T01:52:34.397Z,31.35
2022-12-14T01:54:39.935Z,27.67
2022-12-14T01:56:43.368Z,26.70
2022-12-14T01:58:46.056Z,30.35
2022-12-14T02:00:49.476Z,38.00
2022-12-14T02:02:55.850Z,33.03
2022-12-14T02:04:59.774Z,33.40
2022-12-14T02:07:02.485Z,25.93
2022-12-14T02:09:08.780Z,33.63
2022-12-14T02:11:10.896Z,30.17
2022-12-14T02:13:27.140Z,34.70
2022-12-14T02:15:29.588Z,37.22
2022-12-14T02:17:31.582Z,28.48
2022-12-14T02:19:33.581Z,31.52
2022-12-14T02:22:09.323Z,31.48
2022-12-14T02:24:29.275Z,23.48
2022-12-14T02:26:35.683Z,28.23
2022-12-14T02:29:03.979Z,32.85
2022-12-14T02:31:32.515Z,30.33
2022-12-14T02:33:37.500Z,32.97
2022-12-14T02:35:57.183Z,32.92
2022-12-14T02:38:31.529Z,24.00
2022-12-14T02:40:41.716Z,23.85
2022-12-14T02:43:07.044Z,28.52
2022-12-14T02:45:31.921Z,28.98
2022-12-14T02:47:44.302Z,28.25
2022-12-14T02:50:02.964Z,31.23
2022-12-14T02:52:29.447Z,26.87
2022-12-14T02:54:59.327Z,28.58
2022-12-14T02:57:14.026Z,35.30
2022-12-14T02:59:16.531Z,28.40
2022-12-14T03:01:22.506Z,24.48
2022-12-14T03:03:24.919Z,24.05
2022-12-14T03:05:27.301Z,26.63
2022-12-14T03:07:36.509Z,32.55
2022-12-14T03:09:38.600Z,28.73
2022-12-14T03:11:47.445Z,27.13
2022-12-14T03:13:59.517Z,24.90
2022-12-14T03:16:08.339Z,20.02
2022-12-14T03:18:12.865Z,24.30
2022-12-14T03:20:20.028Z,27.98
2022-12-14T03:22:38.393Z,29.52
2022-12-14T03:24:46.003Z,31.35
2022-12-14T03:27:00.595Z,23.70
2022-12-14T03:29:14.864Z,30.20
2022-12-14T03:31:40.436Z,27.17
2022-12-14T03:33:44.070Z,27.25
2022-12-14T03:35:50.718Z,30.23
2022-12-14T03:37:58.584Z,28.67
2022-12-14T03:40:00.637Z,26.10
2022-12-14T03:42:15.863Z,28.33
2022-12-14T03:44:26.560Z,23.65
2022-12-14T03:46:43.200Z,26.98
2022-12-14T03:48:52.309Z,29.00
2022-12-14T03:51:06.615Z,24.98
2022-12-14T03:53:13.871Z,24.92
2022-12-14T03:55:32.308Z,28.10
2022-12-14T03:57:46.594Z,30.42
2022-12-14T04:00:08.128Z,24.60
2022-12-14T04:02:25.955Z,31.45
2022-12-14T04:04:34.287Z,29.30
2022-12-14T04:06:50.235Z,23.02
2022-12-14T04:09:10.676Z,28.40
2022-12-14T04:11:33.427Z,31.55
2022-12-14T04:13:59.573Z,38.80
2022-12-14T04:16:25.193Z,29.15
2022-12-14T04:18:55.695Z,28.25
2022-12-14T04:21:19.925Z,27.67
2022-12-14T04:23:44.543Z,19.92
2022-12-14T04:26:05.431Z,26.75
2022-12-14T04:28:39.627Z,26.58
2022-12-14T04:30:41.775Z,27.58
2022-12-14T04:32:48.275Z,28.63
2022-12-14T04:34:54.957Z,27.88
2022-12-14T04:36:59.728Z,27.23
2022-12-14T04:39:07.933Z,25.00
2022-12-14T04:41:14.326Z,24.42
2022-12-14T04:43:27.077Z,27.25
2022-12-14T04:45:34.107Z,29.52
2022-12-14T04:47:41.254Z,27.17
2022-12-14T04:49:51.349Z,24.08
2022-12-14T04:52:05.690Z,26.42
2022-12-14T04:54:33.121Z,26.90
2022-12-14T04:56:48.281Z,22.20
2022-12-14T04:58:50.524Z,32.38
2022-12-14T05:01:25.885Z,22.83
2022-12-14T05:03:31.295Z,27.08
2022-12-14T05:06:10.505Z,26.63
2022-12-14T05:08:49.443Z,31.83
2022-12-14T05:11:30.208Z,21.63
2022-12-14T05:13:27.022Z,25.73
2022-12-14T05:15:33.760Z,26.05
2022-12-14T05:17:37.267Z,26.80
2022-12-14T05:19:48.832Z,23.20
2022-12-14T05:21:51.372Z,31.95
2022-12-14T05:23:53.461Z,30.20
2022-12-14T05:25:55.601Z,26.60
2022-12-14T05:27:57.667Z,26.02
2022-12-14T05:29:59.838Z,28.30
2022-12-14T05:32:02.283Z,22.20
2022-12-14T05:34:04.294Z,21.38
2022-12-14T05:36:07.023Z,30.15
2022-12-14T05:38:10.127Z,32.83
2022-12-14T05:40:12.939Z,28.95
2022-12-14T05:42:15.118Z,38.87
2022-12-14T05:44:17.151Z,24.10
2022-12-14T05:46:19.184Z,27.65
2022-12-14T05:48:21.181Z,28.10
2022-12-14T05:50:23.215Z,29.02
2022-12-14T05:52:26.365Z,36.23
2022-12-14T05:54:28.497Z,24.85
2022-12-14T05:56:30.499Z,26.98
2022-12-14T05:58:33.555Z,28.20
2022-12-14T06:00:35.550Z,30.40
2022-12-14T06:02:37.559Z,28.15
2022-12-14T06:04:39.909Z,27.88
2022-12-14T06:06:42.533Z,25.75
2022-12-14T06:08:45.668Z,27.73
2022-12-14T06:10:47.659Z,26.73
2022-12-14T06:12:49.674Z,28.55
2022-12-14T06:14:51.688Z,27.42
2022-12-14T06:16:54.264Z,27.17
2022-12-14T06:18:57.838Z,26.38
2022-12-14T06:20:59.855Z,19.83
2022-12-14T06:23:01.839Z,25.73
2022-12-14T06:25:04.379Z,26.05
2022-12-14T06:27:06.438Z,27.23
2022-12-14T06:29:13.811Z,31.08
2022-12-14T06:31:20.123Z,19.60
2022-12-14T06:33:22.313Z,28.20
2022-12-14T06:35:24.343Z,30.45
2022-12-14T06:37:26.315Z,27.27
2022-12-14T06:39:28.846Z,26.83
2022-12-14T06:41:30.950Z,25.05
2022-12-14T06:43:32.919Z,26.13
2022-12-14T06:45:35.397Z,25.67
2022-12-14T06:47:37.434Z,26.73
2022-12-14T06:49:39.441Z,24.20
2022-12-14T06:51:42.248Z,22.58
2022-12-14T06:53:44.261Z,25.75
2022-12-14T06:55:46.319Z,24.00
2022-12-14T06:57:52.244Z,26.75
2022-12-14T06:59:54.238Z,33.58
2022-12-14T07:01:56.338Z,23.33
2022-12-14T07:03:59.494Z,28.83
2022-12-14T07:06:02.815Z,28.70
2022-12-14T07:08:05.125Z,27.50
2022-12-14T07:10:08.479Z,26.55
2022-12-14T07:12:10.569Z,24.92
2022-12-14T07:14:16.474Z,26.80
2022-12-14T07:16:21.276Z,25.48
2022-12-14T07:18:23.969Z,30.75
2022-12-14T07:20:26.021Z,22.52
2022-12-14T07:22:28.108Z,20.97
2022-12-14T07:24:30.597Z,25.60
2022-12-14T07:26:32.616Z,27.23
2022-12-14T07:28:37.128Z,26.30
2022-12-14T07:30:39.156Z,28.30
2022-12-14T07:32:41.194Z,27.50
2022-12-14T07:34:43.234Z,40.00
2022-12-14T07:36:45.225Z,31.38
2022-12-14T07:38:48.537Z,35.70
2022-12-14T07:40:51.284Z,31.02
2022-12-14T07:42:53.964Z,34.33
2022-12-14T07:44:56.009Z,36.30
2022-12-14T07:46:58.109Z,35.92
2022-12-14T07:49:01.343Z,32.03
2022-12-14T07:51:06.247Z,31.92
2022-12-14T07:53:08.215Z,35.15
2022-12-14T07:55:10.244Z,39.70
2022-12-14T07:57:12.319Z,34.95
2022-12-14T07:59:16.221Z,29.25
2022-12-14T08:01:19.795Z,42.42
2022-12-14T08:03:21.978Z,31.92
2022-12-14T08:05:24.050Z,30.52
2022-12-14T08:07:27.389Z,33.40
2022-12-14T08:09:29.495Z,35.17
2022-12-14T08:11:31.476Z,35.33
2022-12-14T08:13:34.155Z,28.60
2022-12-14T08:15:39.237Z,35.05
2022-12-14T08:17:41.267Z,40.30
2022-12-14T08:19:43.331Z,38.40
2022-12-14T08:21:45.858Z,37.90
2022-12-14T08:23:53.465Z,38.73
2022-12-14T08:25:56.474Z,33.47
2022-12-14T08:27:58.563Z,41.43
2022-12-14T08:30:00.585Z,38.50
2022-12-14T08:32:02.622Z,39.50
2022-12-14T08:34:05.158Z,40.13
2022-12-14T08:36:08.944Z,36.57
2022-12-14T08:38:10.965Z,31.40
2022-12-14T08:40:13.111Z,28.50
2022-12-14T08:42:15.110Z,36.67
2022-12-14T08:44:17.483Z,37.70
2022-12-14T08:46:20.342Z,32.78
2022-12-14T08:48:22.411Z,34.10
2022-12-14T08:50:25.322Z,42.70
2022-12-14T08:52:27.327Z,56.83
2022-12-14T08:54:29.558Z,44.30
2022-12-14T08:56:38.200Z,36.10
2022-12-14T08:58:41.133Z,42.40
2022-12-14T09:00:43.578Z,46.63
2022-12-14T09:02:49.790Z,36.72
2022-12-14T09:04:51.997Z,35.08
2022-12-14T09:06:53.999Z,39.13
2022-12-14T09:08:56.093Z,36.17
2022-12-14T09:10:58.393Z,39.80
2022-12-14T09:13:00.553Z,30.85
2022-12-14T09:15:02.684Z,38.50
2022-12-14T09:17:05.422Z,43.08
2022-12-14T09:19:07.474Z,36.40
2022-12-14T09:21:09.811Z,36.90
2022-12-14T09:23:11.920Z,36.17
2022-12-14T09:25:13.992Z,41.93
2022-12-14T09:27:16.042Z,37.53
2022-12-14T09:29:19.574Z,33.83
2022-12-14T09:31:24.133Z,37.67
2022-12-14T09:33:28.388Z,41.85
2022-12-14T09:35:30.638Z,44.00
2022-12-14T09:37:32.602Z,34.80
2022-12-14T09:39:34.824Z,37.13
2022-12-14T09:42:01.017Z,34.33
2022-12-14T09:44:03.362Z,36.97
2022-12-14T09:46:33.145Z,37.85
2022-12-14T09:48:35.330Z,41.10
2022-12-14T09:50:38.366Z,37.90
2022-12-14T09:52:46.505Z,36.53
2022-12-14T09:54:49.792Z,39.88
2022-12-14T09:56:54.595Z,41.53
2022-12-14T09:58:58.549Z,47.77
2022-12-14T10:01:25.177Z,34.53
2022-12-14T10:03:49.737Z,37.38
2022-12-14T10:06:00.372Z,38.67
2022-12-14T10:08:21.755Z,34.05
2022-12-14T10:10:27.606Z,40.30
2022-12-14T10:12:51.567Z,40.15
2022-12-14T10:15:18.906Z,36.23
2022-12-14T10:17:32.303Z,33.43
2022-12-14T10:19:43.378Z,38.40
2022-12-14T10:21:50.874Z,34.40
2022-12-14T10:24:00.085Z,33.80
2022-12-14T10:26:08.783Z,41.27
2022-12-14T10:28:17.741Z,30.63
2022-12-14T10:30:21.267Z,36.43
2022-12-14T10:32:47.042Z,38.53
2022-12-14T10:34:52.508Z,33.13
2022-12-14T10:37:14.706Z,33.10
2022-12-14T10:39:31.974Z,27.77
2022-12-14T10:41:53.201Z,35.80
2022-12-14T10:44:08.129Z,38.47
2022-12-14T10:46:27.297Z,34.47
2022-12-14T10:48:37.258Z,32.97
2022-12-14T10:50:53.502Z,33.00
2022-12-14T10:52:56.718Z,34.07
2022-12-14T10:55:02.490Z,32.63
2022-12-14T10:57:05.134Z,33.27
2022-12-14T10:59:36.685Z,33.90
2022-12-14T11:01:42.038Z,39.47
2022-12-14T11:03:48.355Z,32.83
2022-12-14T11:06:05.260Z,33.40
2022-12-14T11:08:08.736Z,35.73
2022-12-14T11:10:15.149Z,34.70
2022-12-14T11:12:20.702Z,34.07
2022-12-14T11:14:23.522Z,37.00
2022-12-14T11:16:36.936Z,37.87
2022-12-14T11:18:40.773Z,41.87
2022-12-14T11:20:48.937Z,38.63
2022-12-14T11:22:56.230Z,36.10
2022-12-14T11:24:58.292Z,42.30
2022-12-14T11:27:02.636Z,33.07
2022-12-14T11:29:06.995Z,31.07
2022-12-14T11:31:13.091Z,32.97
2022-12-14T11:33:17.260Z,36.33
2022-12-14T11:35:21.056Z,34.33
2022-12-14T11:37:29.872Z,31.83
2022-12-14T11:39:32.104Z,37.97
2022-12-14T11:41:39.242Z,34.50
2022-12-14T11:43:41.408Z,34.07
2022-12-14T11:45:50.476Z,36.70
2022-12-14T11:48:14.380Z,37.83
2022-12-14T11:50:25.243Z,33.17
2022-12-14T11:52:41.282Z,37.00
2022-12-14T11:54:50.200Z,30.00
2022-12-14T11:56:52.851Z,34.97
2022-12-14T11:58:55.010Z,40.33
2022-12-14T12:01:05.835Z,31.07
2022-12-14T12:03:39.404Z,32.47
2022-12-14T12:05:43.059Z,39.60
2022-12-14T12:07:50.741Z,30.77
2022-12-14T12:09:52.846Z,43.23
2022-12-14T12:11:54.919Z,42.40
2022-12-14T12:14:01.660Z,32.57
2022-12-14T12:16:16.772Z,32.57
2022-12-14T12:18:46.268Z,37.10
2022-12-14T12:21:11.354Z,35.90
2022-12-14T12:23:20.359Z,28.17
2022-12-14T12:25:27.509Z,38.10
2022-12-14T12:27:31.402Z,38.67
2022-12-14T12:29:33.429Z,27.93
2022-12-14T12:31:46.035Z,31.80
2022-12-14T12:33:52.782Z,34.27
2022-12-14T12:35:56.898Z,36.17
2022-12-14T12:38:15.398Z,37.40
2022-12-14T12:40:26.504Z,33.53
2022-12-14T12:42:45.266Z,34.07
2022-12-14T12:45:11.698Z,33.63
2022-12-14T12:47:26.780Z,32.73
2022-12-14T12:49:32.579Z,32.57
2022-12-14T12:51:51.809Z,32.13
2022-12-14T12:54:00.887Z,35.80
2022-12-14T12:56:13.696Z,39.93
2022-12-14T12:58:35.445Z,41.50
2022-12-14T13:00:38.420Z,35.90
2022-12-14T13:02:50.268Z,36.63
2022-12-14T13:04:53.621Z,32.00
2022-12-14T13:07:00.136Z,35.20
2022-12-14T13:09:14.016Z,34.80
2022-12-14T13:11:28.575Z,32.90
2022-12-14T13:13:32.888Z,31.43
2022-12-14T13:15:41.225Z,33.63
2022-12-14T13:17:49.966Z,33.67
2022-12-14T13:19:54.467Z,31.63
2022-12-14T13:22:03.364Z,30.43
2022-12-14T13:24:15.274Z,35.60
2022-12-14T13:26:55.570Z,35.83
2022-12-14T13:29:21.619Z,41.87
2022-12-14T13:31:37.151Z,30.53
2022-12-14T13:33:54.980Z,39.47
2022-12-14T13:36:15.239Z,40.77
2022-12-14T13:38:37.423Z,47.13
2022-12-14T13:41:05.098Z,44.60
2022-12-14T13:43:18.563Z,45.03
2022-12-14T13:45:30.170Z,48.73
2022-12-14T13:47:44.900Z,49.23
2022-12-14T13:50:34.265Z,46.23
2022-12-14T13:52:32.644Z,39.37
2022-12-14T13:54:37.547Z,42.17
2022-12-14T13:56:40.153Z,42.07
2022-12-14T13:58:44.368Z,41.43
2022-12-14T14:00:46.686Z,43.90
2022-12-14T14:02:53.599Z,50.73
2022-12-14T14:05:18.829Z,38.63
2022-12-14T14:07:23.974Z,43.57
2022-12-14T14:09:25.902Z,50.40
2022-12-14T14:11:37.034Z,64.53
2022-12-14T14:13:40.107Z,45.47
2022-12-14T14:16:19.359Z,29.97
2022-12-14T14:18:19.166Z,32.03
2022-12-14T14:20:36.360Z,32.10
2022-12-14T14:22:38.378Z,31.43
2022-12-14T14:25:02.122Z,35.30
2022-12-14T14:27:11.428Z,36.07
2022-12-14T14:29:30.403Z,34.73
2022-12-14T14:31:55.241Z,40.03
2022-12-14T14:33:57.379Z,41.53
2022-12-14T14:36:17.453Z,36.80
2022-12-14T14:38:31.554Z,38.93
2022-12-14T14:43:05.318Z,47.27
2022-12-14T14:45:09.017Z,40.83
2022-12-14T14:47:36.453Z,35.37
2022-12-14T14:49:40.785Z,44.50
2022-12-14T14:51:42.744Z,37.00
2022-12-14T14:53:45.205Z,39.40
2022-12-14T14:55:53.777Z,34.80
2022-12-14T14:58:22.082Z,42.37
2022-12-14T15:00:24.896Z,38.80
2022-12-14T15:02:32.532Z,41.03
2022-12-14T15:04:44.928Z,39.03
2022-12-14T15:06:49.506Z,34.67
2022-12-14T15:09:05.900Z,35.80
2022-12-14T15:11:19.874Z,35.80
2022-12-14T15:13:28.428Z,37.33
2022-12-14T15:15:40.150Z,36.50
2022-12-14T15:17:42.419Z,39.90
2022-12-14T15:19:53.267Z,36.87
2022-12-14T15:22:00.979Z,34.23
2022-12-14T15:24:03.171Z,36.93
2022-12-14T15:26:16.632Z,33.97
2022-12-14T15:28:22.960Z,35.57
2022-12-14T15:30:26.926Z,38.27
2022-12-14T15:32:31.732Z,33.70
2022-12-14T15:34:35.153Z,40.13
2022-12-14T15:36:40.150Z,30.77
2022-12-14T15:38:53.973Z,38.03
2022-12-14T15:41:12.763Z,35.70
2022-12-14T15:43:19.354Z,35.90
2022-12-14T15:45:25.220Z,39.23
2022-12-14T15:47:30.971Z,39.30
2022-12-14T15:49:32.980Z,39.70
2022-12-14T15:51:39.967Z,38.27
2022-12-14T15:53:53.290Z,39.47
2022-12-14T15:56:01.947Z,35.57
2022-12-14T15:58:15.472Z,41.97
2022-12-14T16:00:17.685Z,39.27
2022-12-14T16:02:30.998Z,34.57
2022-12-14T16:04:33.382Z,39.97
2022-12-14T16:06:40.939Z,39.37
2022-12-14T16:08:52.427Z,37.07
2022-12-14T16:10:56.376Z,44.30
2022-12-14T16:13:08.108Z,41.20
2022-12-14T16:15:21.485Z,46.13
2022-12-14T16:17:29.103Z,41.57
2022-12-14T16:19:57.598Z,41.73
2022-12-14T16:22:09.082Z,39.20
2022-12-14T16:24:23.648Z,50.10
2022-12-14T16:26:25.609Z,48.73
2022-12-14T16:28:29.086Z,45.33
2022-12-14T16:30:33.046Z,48.10
2022-12-14T16:32:35.115Z,61.67
2022-12-14T16:34:37.129Z,78.00
2022-12-14T16:36:39.273Z,66.67
2022-12-14T16:38:55.330Z,58.70
2022-12-14T16:41:00.133Z,58.23
2022-12-14T16:43:04.328Z,58.53
2022-12-14T16:45:06.660Z,55.47
2022-12-14T16:47:28.628Z,54.37
2022-12-14T16:49:33.691Z,50.07
2022-12-14T16:52:06.933Z,58.42
2022-12-14T16:54:03.756Z,54.93
2022-12-14T16:56:06.521Z,48.03
2022-12-14T16:58:16.434Z,54.93
2022-12-14T17:00:27.761Z,50.60
2022-12-14T17:02:33.480Z,73.03
2022-12-14T17:04:36.978Z,69.97
2022-12-14T17:06:50.410Z,63.67
2022-12-14T17:08:52.685Z,51.07
2022-12-14T17:10:55.249Z,49.90
2022-12-14T17:12:58.944Z,53.23
2022-12-14T17:15:01.297Z,56.20
2022-12-14T17:17:04.159Z,52.93
2022-12-14T17:19:06.699Z,59.83
2022-12-14T17:21:17.812Z,70.30
2022-12-14T17:23:19.957Z,73.10
2022-12-14T17:25:21.943Z,67.47
2022-12-14T17:27:26.593Z,72.80
2022-12-14T17:29:30.152Z,66.60
2022-12-14T17:31:32.412Z,97.03
2022-12-14T17:33:34.528Z,59.57
2022-12-14T17:35:36.718Z,60.83
2022-12-14T17:37:38.746Z,71.67
2022-12-14T17:39:40.810Z,72.55
2022-12-14T17:41:45.027Z,54.83
2022-12-14T17:43:51.130Z,81.07
2022-12-14T17:46:01.036Z,88.73
2022-12-14T17:48:03.662Z,70.47
2022-12-14T17:50:06.063Z,72.57
2022-12-14T17:52:16.532Z,59.90
2022-12-14T17:54:19.246Z,55.07
2022-12-14T17:56:21.824Z,61.33
2022-12-14T17:58:23.918Z,57.77
2022-12-14T18:00:46.600Z,49.67
2022-12-14T18:02:48.724Z,49.77
2022-12-14T18:04:51.983Z,59.07
2022-12-14T18:06:54.087Z,62.90
2022-12-14T18:08:56.055Z,67.43
2022-12-14T18:11:05.451Z,56.67
2022-12-14T18:13:11.624Z,57.33
2022-12-14T18:15:19.825Z,57.90
2022-12-14T18:17:21.886Z,71.00
2022-12-14T18:19:23.997Z,65.77
2022-12-14T18:21:28.254Z,67.53
2022-12-14T18:23:31.712Z,66.63
2022-12-14T18:25:59.001Z,58.65
2022-12-14T18:28:02.253Z,71.97
2022-12-14T18:30:04.791Z,86.88
2022-12-14T18:32:06.796Z,88.60
2022-12-14T18:34:10.040Z,60.90
2022-12-14T18:36:13.275Z,72.90
2022-12-14T18:38:15.356Z,63.08
2022-12-14T18:40:22.963Z,67.93
2022-12-14T18:42:24.898Z,55.83
2022-12-14T18:44:26.920Z,54.80
2022-12-14T18:46:28.909Z,43.00
2022-12-14T18:48:31.082Z,51.92
2022-12-14T18:50:33.121Z,60.00
2022-12-14T18:52:35.130Z,55.28
2022-12-14T18:54:37.155Z,54.88
2022-12-14T18:56:41.273Z,45.88
2022-12-14T18:58:45.322Z,46.30
2022-12-14T19:00:48.218Z,48.50
2022-12-14T19:02:50.477Z,60.50
2022-12-14T19:04:55.298Z,61.72
2022-12-14T19:06:57.276Z,69.43
2022-12-14T19:08:59.332Z,60.30
2022-12-14T19:11:01.403Z,93.60
2022-12-14T19:13:03.448Z,67.82
2022-12-14T19:15:06.396Z,56.03
2022-12-14T19:17:08.391Z,50.40
2022-12-14T19:19:10.418Z,62.38
2022-12-14T19:21:12.449Z,68.60
2022-12-14T19:23:16.151Z,58.60
2022-12-14T19:25:19.099Z,59.63
2022-12-14T19:27:42.721Z,52.38
2022-12-14T19:29:43.105Z,40.08
2022-12-14T19:31:45.221Z,42.50
2022-12-14T19:33:47.235Z,45.58
2022-12-14T19:35:49.448Z,39.45
2022-12-14T19:37:51.846Z,36.05
2022-12-14T19:39:54.676Z,28.53
2022-12-14T19:41:56.719Z,35.85
2022-12-14T19:43:58.741Z,34.13
2022-12-14T19:46:00.800Z,34.97
2022-12-14T19:48:02.939Z,33.33
2022-12-14T19:50:06.727Z,41.15
2022-12-14T19:52:08.888Z,40.03
2022-12-14T19:54:12.007Z,36.33
2022-12-14T19:56:15.924Z,37.97
2022-12-14T19:58:19.159Z,36.42
2022-12-14T20:00:21.265Z,34.70
2022-12-14T20:02:23.407Z,38.45
2022-12-14T20:04:25.582Z,49.85
2022-12-14T20:06:27.992Z,67.03
2022-12-14T20:08:31.150Z,61.47
2022-12-14T20:10:33.187Z,55.92
2022-12-14T20:12:35.482Z,50.78
2022-12-14T20:14:40.379Z,50.42
2022-12-14T20:16:42.482Z,40.30
2022-12-14T20:18:44.921Z,52.92
2022-12-14T20:20:49.388Z,55.20
2022-12-14T20:22:51.911Z,50.85
2022-12-14T20:24:53.942Z,41.70
2022-12-14T20:26:56.183Z,52.92
2022-12-14T20:29:05.365Z,39.58
2022-12-14T20:31:09.280Z,55.75
2022-12-14T20:33:11.615Z,36.72
2022-12-14T20:35:18.378Z,67.88
2022-12-14T20:37:20.368Z,62.35
2022-12-14T20:39:22.439Z,74.45
2022-12-14T20:41:25.199Z,65.07
2022-12-14T20:43:27.340Z,76.75
2022-12-14T20:45:29.493Z,75.03
2022-12-14T20:47:31.614Z,95.55
2022-12-14T20:49:33.862Z,51.25
2022-12-14T20:51:37.316Z,72.72
2022-12-14T20:53:39.364Z,69.93
2022-12-14T20:55:41.509Z,72.43
2022-12-14T20:57:43.538Z,93.43
2022-12-14T20:59:45.605Z,60.47
2022-12-14T21:01:55.162Z,65.05
2022-12-14T21:04:00.440Z,76.03
2022-12-14T21:06:02.714Z,62.47
2022-12-14T21:08:04.935Z,59.25
2022-12-14T21:10:07.791Z,57.95
2022-12-14T21:12:22.322Z,62.38
2022-12-14T21:14:26.768Z,51.30
2022-12-14T21:16:28.804Z,58.30
2022-12-14T21:18:30.889Z,54.67
2022-12-14T21:20:32.903Z,60.58
2022-12-14T21:22:35.373Z,56.10
2022-12-14T21:25:01.709Z,52.03
2022-12-14T21:26:59.530Z,54.97
2022-12-14T21:29:01.500Z,54.35
2022-12-14T21:31:04.747Z,59.28
2022-12-14T21:33:06.774Z,67.60
2022-12-14T21:35:09.638Z,49.15
2022-12-14T21:37:12.123Z,53.47
2022-12-14T21:39:18.508Z,55.17
2022-12-14T21:41:39.429Z,54.58
2022-12-14T21:43:41.439Z,46.10
2022-12-14T21:45:45.730Z,46.28
2022-12-14T21:47:48.278Z,57.13
2022-12-14T21:49:50.345Z,50.58
2022-12-14T21:51:56.194Z,51.00
2022-12-14T21:54:00.922Z,56.38
2022-12-14T21:56:21.447Z,60.00
2022-12-14T21:58:24.704Z,56.97
2022-12-14T22:00:26.692Z,66.38
2022-12-14T22:02:29.156Z,46.50
2022-12-14T22:04:37.850Z,52.15
2022-12-14T22:06:41.826Z,57.10
2022-12-14T22:08:43.933Z,59.85
2022-12-14T22:10:45.859Z,54.55
2022-12-14T22:12:47.937Z,52.25
2022-12-14T22:14:50.349Z,54.42
2022-12-14T22:16:52.959Z,54.03
2022-12-14T22:18:55.150Z,58.72
2022-12-14T22:21:04.263Z,55.63
2022-12-14T22:23:06.289Z,46.78
2022-12-14T22:25:08.602Z,46.15
2022-12-14T22:27:13.783Z,48.78
2022-12-14T22:29:16.878Z,49.75
2022-12-14T22:31:20.351Z,50.95
2022-12-14T22:33:22.402Z,42.65
2022-12-14T22:35:24.515Z,59.25
2022-12-14T22:37:26.510Z,64.05
2022-12-14T22:39:28.732Z,61.55
2022-12-14T22:41:30.724Z,70.05
2022-12-14T22:43:37.051Z,51.60
2022-12-14T22:45:39.724Z,67.43
2022-12-14T22:47:41.837Z,61.25
2022-12-14T22:49:43.861Z,50.38
2022-12-14T22:51:46.116Z,72.60
2022-12-14T22:53:49.560Z,63.83
2022-12-14T22:55:52.202Z,66.93
2022-12-14T22:57:54.569Z,56.33
2022-12-14T22:59:58.804Z,54.37
2022-12-14T23:02:01.091Z,55.60
2022-12-14T23:04:03.957Z,79.22
2022-12-14T23:06:06.251Z,60.78
2022-12-14T23:08:08.231Z,53.42
2022-12-14T23:10:29.175Z,62.55
2022-12-14T23:12:50.154Z,55.23
2022-12-14T23:15:10.460Z,66.50
2022-12-14T23:17:31.023Z,61.85
2022-12-14T23:19:51.977Z,67.37
2022-12-14T23:22:12.311Z,55.28
2022-12-14T23:24:33.127Z,60.47
2022-12-14T23:26:54.070Z,69.50
2022-12-14T23:29:14.711Z,84.87
2022-12-14T23:31:35.554Z,65.82
2022-12-14T23:33:56.478Z,59.80
2022-12-14T23:36:19.718Z,80.00
2022-12-14T23:38:40.658Z,70.27
2022-12-14T23:41:01.745Z,58.43
2022-12-14T23:43:34.361Z,63.92
2022-12-14T23:45:55.468Z,76.67
2022-12-14T23:48:16.428Z,73.22
2022-12-14T23:50:37.226Z,63.97
2022-12-14T23:52:58.054Z,71.57
2022-12-14T23:55:18.419Z,65.03
2022-12-14T23:57:38.809Z,93.18
2022-12-14T23:59:59.140Z,65.72
